createdAt,value
2018-10-12T00:01:00.288Z,22.44
2018-10-12T00:03:29.047Z,22.45
2018-10-12T00:05:57.902Z,22.45
2018-10-12T00:08:26.826Z,22.46
2018-10-12T00:10:55.546Z,22.50
2018-10-12T00:13:24.437Z,22.50
2018-10-12T00:15:53.260Z,22.48
2018-10-12T00:18:22.131Z,22.48
2018-10-12T00:20:50.836Z,22.49
2018-10-12T00:23:19.337Z,22.50
2018-10-12T00:25:47.902Z,22.57
2018-10-12T00:28:16.557Z,22.56
2018-10-12T00:30:45.141Z,22.58
2018-10-12T00:33:13.764Z,22.63
2018-10-12T00:35:42.513Z,22.60
2018-10-12T00:38:11.108Z,22.60
2018-10-12T00:40:39.984Z,22.62
2018-10-12T00:43:08.774Z,22.61
2018-10-12T00:45:37.505Z,22.58
2018-10-12T00:48:06.263Z,22.57
2018-10-12T00:50:34.907Z,22.56
2018-10-12T00:53:03.524Z,22.54
2018-10-12T00:55:35.178Z,22.52
2018-10-12T00:58:03.865Z,22.52
2018-10-12T01:00:32.569Z,22.52
2018-10-12T01:03:01.270Z,22.50
2018-10-12T01:05:29.981Z,22.48
2018-10-12T01:07:58.703Z,22.47
2018-10-12T01:10:27.256Z,22.46
2018-10-12T01:12:55.989Z,22.30
2018-10-12T01:15:24.769Z,22.44
2018-10-12T01:17:53.463Z,22.39
2018-10-12T01:20:22.121Z,22.39
2018-10-12T01:22:50.756Z,22.37
2018-10-12T01:25:19.415Z,22.41
2018-10-12T01:27:47.954Z,22.34
2018-10-12T01:30:16.631Z,22.32
2018-10-12T01:32:50.456Z,22.29
2018-10-12T01:35:19.280Z,22.26
2018-10-12T01:37:48.215Z,22.28
2018-10-12T01:40:17.301Z,22.28
2018-10-12T01:42:46.247Z,22.25
2018-10-12T01:45:15.377Z,22.22
2018-10-12T01:47:44.625Z,22.23
2018-10-12T01:50:13.780Z,22.16
2018-10-12T01:52:42.891Z,22.22
2018-10-12T01:55:11.683Z,22.16
2018-10-12T01:57:40.323Z,22.16
2018-10-12T02:00:09.237Z,22.15
2018-10-12T02:02:37.941Z,22.12
2018-10-12T02:05:06.859Z,22.13
2018-10-12T02:07:35.543Z,22.08
2018-10-12T02:10:04.234Z,22.04
2018-10-12T02:12:32.751Z,21.99
2018-10-12T02:15:01.320Z,21.99
2018-10-12T02:17:29.886Z,22.02
2018-10-12T02:19:58.534Z,22.01
2018-10-12T02:22:27.184Z,22.03
2018-10-12T02:24:55.861Z,22.01
2018-10-12T02:27:24.635Z,22.04
2018-10-12T02:29:53.232Z,22.01
2018-10-12T02:32:21.841Z,22.00
2018-10-12T02:34:50.399Z,22.03
2018-10-12T02:37:19.007Z,22.01
2018-10-12T02:39:47.625Z,21.97
2018-10-12T02:42:16.580Z,22.03
2018-10-12T02:44:45.261Z,21.98
2018-10-12T02:47:14.159Z,21.97
2018-10-12T02:49:42.883Z,21.91
2018-10-12T02:52:11.746Z,21.89
2018-10-12T02:54:40.483Z,21.91
2018-10-12T02:57:09.400Z,21.88
2018-10-12T02:59:38.229Z,21.86
2018-10-12T03:02:07.271Z,21.85
2018-10-12T03:04:36.298Z,21.81
2018-10-12T03:07:05.332Z,21.78
2018-10-12T03:09:34.139Z,21.77
2018-10-12T03:12:02.882Z,21.79
2018-10-12T03:14:31.658Z,21.74
2018-10-12T03:17:00.545Z,21.72
2018-10-12T03:19:29.401Z,21.67
2018-10-12T03:21:58.228Z,21.68
2018-10-12T03:24:27.202Z,21.64
2018-10-12T03:26:56.076Z,21.65
2018-10-12T03:29:24.946Z,21.65
2018-10-12T03:31:53.986Z,21.63
2018-10-12T03:34:22.915Z,21.62
2018-10-12T03:36:52.179Z,21.60
2018-10-12T03:39:21.233Z,21.55
2018-10-12T03:41:50.161Z,21.54
2018-10-12T03:44:18.885Z,21.51
2018-10-12T03:46:47.732Z,21.46
2018-10-12T03:49:16.501Z,21.46
2018-10-12T03:51:45.344Z,21.43
2018-10-12T03:54:14.271Z,21.40
2018-10-12T03:56:43.003Z,21.36
2018-10-12T03:59:11.729Z,21.35
2018-10-12T04:01:40.491Z,21.33
2018-10-12T04:04:09.347Z,21.29
2018-10-12T04:06:38.054Z,20.96
2018-10-12T04:09:12.225Z,21.29
2018-10-12T04:11:41.113Z,21.27
2018-10-12T04:14:09.765Z,20.95
2018-10-12T04:16:38.485Z,21.29
2018-10-12T04:19:07.708Z,20.49
2018-10-12T04:21:36.472Z,18.37
2018-10-12T04:24:05.439Z,21.25
2018-10-12T04:26:34.532Z,21.23
2018-10-12T04:29:03.318Z,21.25
2018-10-12T04:31:31.967Z,21.22
2018-10-12T04:34:00.783Z,21.15
2018-10-12T04:36:29.642Z,21.12
2018-10-12T04:39:09.431Z,21.09
2018-10-12T04:41:38.352Z,21.07
2018-10-12T04:44:07.350Z,21.03
2018-10-12T04:46:41.919Z,21.01
2018-10-12T04:49:13.361Z,21.00
2018-10-12T04:51:52.412Z,20.95
2018-10-12T04:54:21.894Z,20.93
2018-10-12T04:56:51.195Z,20.92
2018-10-12T04:59:20.409Z,20.92
2018-10-12T05:01:49.386Z,20.88
2018-10-12T05:04:18.272Z,20.91
2018-10-12T05:06:47.071Z,20.95
2018-10-12T05:09:16.125Z,20.90
2018-10-12T05:11:45.083Z,20.92
2018-10-12T05:14:14.549Z,20.93
2018-10-12T05:16:43.560Z,20.91
2018-10-12T05:19:12.769Z,20.93
2018-10-12T05:21:42.100Z,20.88
2018-10-12T05:24:11.465Z,20.89
2018-10-12T05:26:40.773Z,20.88
2018-10-12T05:29:10.148Z,20.86
2018-10-12T05:31:39.874Z,20.92
2018-10-12T05:34:09.333Z,20.93
2018-10-12T05:36:40.615Z,20.93
2018-10-12T05:39:11.579Z,20.93
2018-10-12T05:44:18.086Z,20.97
2018-10-12T05:46:47.159Z,20.97
2018-10-12T05:49:27.216Z,20.97
2018-10-12T05:51:56.945Z,20.96
2018-10-12T05:54:26.950Z,20.97
2018-10-12T05:56:56.509Z,20.96
2018-10-12T05:59:25.906Z,20.97
2018-10-12T06:01:55.669Z,20.94
2018-10-12T06:04:25.187Z,20.97
2018-10-12T06:06:54.692Z,20.99
2018-10-12T06:09:25.015Z,20.98
2018-10-12T06:11:55.293Z,20.97
2018-10-12T06:14:24.512Z,21.01
2018-10-12T06:16:53.400Z,21.04
2018-10-12T06:22:24.856Z,21.11
2018-10-12T06:24:54.938Z,21.14
2018-10-12T06:27:24.012Z,21.18
2018-10-12T06:29:52.701Z,21.25
2018-10-12T06:32:21.324Z,21.35
2018-10-12T06:34:50.442Z,21.48
2018-10-12T06:37:19.219Z,21.82
2018-10-12T06:39:48.177Z,22.21
2018-10-12T06:42:17.205Z,22.68
2018-10-12T06:44:46.035Z,23.17
2018-10-12T06:47:15.129Z,23.65
2018-10-12T06:49:43.972Z,24.13
2018-10-12T06:52:12.892Z,24.44
2018-10-12T06:54:41.745Z,24.74
2018-10-12T06:57:10.539Z,25.03
2018-10-12T06:59:39.545Z,25.35
2018-10-12T07:02:08.426Z,25.66
2018-10-12T07:04:37.132Z,25.99
2018-10-12T07:07:05.928Z,26.31
2018-10-12T07:09:34.632Z,26.70
2018-10-12T07:12:03.265Z,27.16
2018-10-12T07:14:31.955Z,27.45
2018-10-12T07:17:00.576Z,27.80
2018-10-12T07:19:29.376Z,28.09
2018-10-12T07:25:01.890Z,28.46
2018-10-12T07:27:30.698Z,28.65
2018-10-12T07:29:59.612Z,28.78
2018-10-12T07:32:30.519Z,28.97
2018-10-12T07:34:59.243Z,29.11
2018-10-12T07:37:28.074Z,29.26
2018-10-12T07:39:56.952Z,29.52
2018-10-12T07:42:25.781Z,29.82
2018-10-12T07:44:54.698Z,30.10
2018-10-12T07:47:25.244Z,30.39
2018-10-12T07:50:01.889Z,30.87
2018-10-12T07:52:31.783Z,31.40
2018-10-12T07:55:00.559Z,31.82
2018-10-12T07:57:31.592Z,32.25
2018-10-12T08:00:02.269Z,32.81
2018-10-12T08:02:31.498Z,32.41
2018-10-12T08:05:06.842Z,32.12
2018-10-12T08:07:35.460Z,31.61
2018-10-12T08:10:04.350Z,31.46
2018-10-12T08:12:33.056Z,31.51
2018-10-12T08:15:01.848Z,31.00
2018-10-12T08:17:30.530Z,30.52
2018-10-12T08:19:59.263Z,30.25
2018-10-12T08:22:27.944Z,29.80
2018-10-12T08:24:57.097Z,30.44
2018-10-12T08:27:26.141Z,31.17
2018-10-12T08:30:00.780Z,32.10
2018-10-12T08:32:31.222Z,32.78
2018-10-12T08:37:40.966Z,33.70
2018-10-12T08:40:10.932Z,34.22
2018-10-12T08:42:40.878Z,34.60
2018-10-12T08:45:13.748Z,35.04
2018-10-12T08:47:44.367Z,35.28
2018-10-12T08:50:13.564Z,35.40
2018-10-12T08:52:42.448Z,34.99
2018-10-12T08:55:11.602Z,33.97
2018-10-12T08:57:40.766Z,33.10
2018-10-12T09:00:10.054Z,33.34
2018-10-12T09:02:39.247Z,32.65
2018-10-12T09:05:08.252Z,31.92
2018-10-12T09:07:36.857Z,31.34
2018-10-12T09:10:05.828Z,30.98
2018-10-12T09:12:34.842Z,30.43
2018-10-12T09:15:03.463Z,29.79
2018-10-12T09:17:32.098Z,29.09
2018-10-12T09:20:00.679Z,28.96
2018-10-12T09:22:29.523Z,28.69
2018-10-12T09:24:58.169Z,28.41
2018-10-12T09:27:26.714Z,28.41
2018-10-12T09:29:55.330Z,28.32
2018-10-12T09:32:24.372Z,28.28
2018-10-12T09:34:53.453Z,28.40
2018-10-12T09:37:22.246Z,28.60
2018-10-12T09:39:51.061Z,28.64
2018-10-12T09:42:19.775Z,28.84
2018-10-12T09:44:48.550Z,29.10
2018-10-12T09:47:17.174Z,29.46
2018-10-12T09:49:45.795Z,29.80
2018-10-12T09:52:14.989Z,29.97
2018-10-12T09:54:43.825Z,30.16
2018-10-12T09:57:17.648Z,30.26
2018-10-12T09:59:46.415Z,30.15
2018-10-12T10:04:22.020Z,31.09
2018-10-12T10:06:50.645Z,30.98
2018-10-12T10:09:19.412Z,30.54
2018-10-12T10:11:48.219Z,30.51
2018-10-12T10:14:17.081Z,31.82
2018-10-12T10:16:46.469Z,32.68
2018-10-12T10:19:15.444Z,34.46
2018-10-12T10:21:44.266Z,36.45
2018-10-12T10:24:12.938Z,37.76
2018-10-12T10:26:41.881Z,38.94
2018-10-12T10:29:10.629Z,40.20
2018-10-12T10:31:39.230Z,41.36
2018-10-12T10:34:08.457Z,42.23
2018-10-12T10:36:36.788Z,42.78
2018-10-12T10:39:07.644Z,43.60
2018-10-12T10:41:36.287Z,44.08
2018-10-12T10:44:04.970Z,44.39
2018-10-12T10:46:33.684Z,44.83
2018-10-12T10:49:02.902Z,45.31
2018-10-12T10:51:31.503Z,45.94
2018-10-12T10:54:00.066Z,46.62
2018-10-12T10:56:28.831Z,46.62
2018-10-12T10:58:57.376Z,46.79
2018-10-12T11:01:25.956Z,47.44
2018-10-12T11:03:54.517Z,48.19
2018-10-12T11:06:23.217Z,48.44
2018-10-12T11:08:51.985Z,47.68
2018-10-12T11:11:20.776Z,47.58
2018-10-12T11:13:49.548Z,47.89
2018-10-12T11:16:18.256Z,47.86
2018-10-12T11:18:47.768Z,47.75
2018-10-12T11:21:16.557Z,47.19
2018-10-12T11:23:45.172Z,47.49
2018-10-12T11:26:14.106Z,47.66
2018-10-12T11:28:42.751Z,47.75
2018-10-12T11:31:11.487Z,48.00
2018-10-12T11:33:40.355Z,47.94
2018-10-12T11:36:09.082Z,48.20
2018-10-12T11:38:37.851Z,48.44
2018-10-12T11:41:07.105Z,49.36
2018-10-12T11:43:37.637Z,49.41
2018-10-12T11:46:06.383Z,49.49
2018-10-12T11:48:34.896Z,49.28
2018-10-12T11:51:03.560Z,49.23
2018-10-12T11:53:32.202Z,49.08
2018-10-12T11:56:00.808Z,48.80
2018-10-12T11:58:29.410Z,48.09
2018-10-12T12:00:58.137Z,48.00
2018-10-12T12:03:26.741Z,47.09
2018-10-12T12:05:55.419Z,45.88
2018-10-12T12:08:24.004Z,44.22
2018-10-12T12:10:52.690Z,42.73
2018-10-12T12:13:21.295Z,41.39
2018-10-12T12:15:49.875Z,40.23
2018-10-12T12:18:18.566Z,39.07
2018-10-12T12:20:47.224Z,38.28
2018-10-12T12:23:15.801Z,37.70
2018-10-12T12:25:44.458Z,37.08
2018-10-12T12:28:13.106Z,35.72
2018-10-12T12:30:41.766Z,36.10
2018-10-12T12:33:10.380Z,35.79
2018-10-12T12:35:39.339Z,35.35
2018-10-12T12:38:07.675Z,35.02
2018-10-12T12:40:36.299Z,34.75
2018-10-12T12:43:04.862Z,34.47
2018-10-12T12:45:33.497Z,34.04
2018-10-12T12:48:02.344Z,33.73
2018-10-12T12:50:30.844Z,33.52
2018-10-12T12:52:59.460Z,33.35
2018-10-12T12:55:28.117Z,33.14
2018-10-12T12:57:56.832Z,33.06
2018-10-12T13:00:25.417Z,32.92
2018-10-12T13:02:54.052Z,32.83
2018-10-12T13:05:22.722Z,32.72
2018-10-12T13:07:51.346Z,32.63
2018-10-12T13:10:19.890Z,32.59
2018-10-12T13:12:48.542Z,32.41
2018-10-12T13:15:17.189Z,30.86
2018-10-12T13:17:45.976Z,32.25
2018-10-12T13:20:14.568Z,32.21
2018-10-12T13:22:43.289Z,32.05
2018-10-12T13:25:11.894Z,31.80
2018-10-12T13:27:40.594Z,31.77
2018-10-12T13:30:09.222Z,31.76
2018-10-12T13:32:37.795Z,31.63
2018-10-12T13:35:07.249Z,31.52
2018-10-12T13:37:35.914Z,31.52
2018-10-12T13:40:04.657Z,31.46
2018-10-12T13:42:33.092Z,31.35
2018-10-12T13:45:01.733Z,31.31
2018-10-12T13:47:30.313Z,31.29
2018-10-12T13:49:59.076Z,31.33
2018-10-12T13:52:27.742Z,31.34
2018-10-12T13:54:56.533Z,31.29
2018-10-12T13:57:25.075Z,31.22
2018-10-12T13:59:53.691Z,31.14
2018-10-12T14:02:22.353Z,31.08
2018-10-12T14:04:51.024Z,31.06
2018-10-12T14:07:19.557Z,30.97
2018-10-12T14:09:48.345Z,30.95
2018-10-12T14:12:18.965Z,30.89
2018-10-12T14:14:47.512Z,30.88
2018-10-12T14:17:16.163Z,30.89
2018-10-12T14:19:45.140Z,30.92
2018-10-12T14:22:13.824Z,30.95
2018-10-12T14:24:46.924Z,30.98
2018-10-12T14:27:15.605Z,30.95
2018-10-12T14:29:44.194Z,30.87
2018-10-12T14:32:15.831Z,30.80
2018-10-12T14:34:49.815Z,30.68
2018-10-12T14:37:18.359Z,30.62
2018-10-12T14:39:47.329Z,30.59
2018-10-12T14:42:16.120Z,30.59
2018-10-12T14:44:52.511Z,30.48
2018-10-12T14:47:21.248Z,30.41
2018-10-12T14:49:50.192Z,30.35
2018-10-12T14:52:18.966Z,30.30
2018-10-12T14:54:48.932Z,30.27
2018-10-12T14:57:18.620Z,30.30
2018-10-12T14:59:48.607Z,30.30
2018-10-12T15:02:17.913Z,30.27
2018-10-12T15:04:46.631Z,30.26
2018-10-12T15:07:15.904Z,30.28
2018-10-12T15:12:33.750Z,30.28
2018-10-12T15:15:27.115Z,30.28
2018-10-12T15:17:57.030Z,30.29
2018-10-12T15:20:26.131Z,30.24
2018-10-12T15:22:55.582Z,30.18
2018-10-12T15:25:24.934Z,30.17
2018-10-12T15:27:53.971Z,30.17
2018-10-12T15:30:23.642Z,30.18
2018-10-12T15:32:52.517Z,30.16
2018-10-12T15:35:21.226Z,30.12
2018-10-12T15:37:50.187Z,30.09
2018-10-12T15:40:18.945Z,30.06
2018-10-12T15:42:47.888Z,30.01
2018-10-12T15:45:16.821Z,29.99
2018-10-12T15:47:45.498Z,29.96
2018-10-12T15:50:14.562Z,29.89
2018-10-12T15:52:43.391Z,29.82
2018-10-12T15:55:12.287Z,29.69
2018-10-12T15:57:41.934Z,29.64
2018-10-12T16:00:10.639Z,29.51
2018-10-12T16:02:39.375Z,29.42
2018-10-12T16:05:08.161Z,29.39
2018-10-12T16:07:36.969Z,29.30
2018-10-12T16:10:05.842Z,29.22
2018-10-12T16:12:35.274Z,29.15
2018-10-12T16:15:04.196Z,29.06
2018-10-12T16:17:33.365Z,28.53
2018-10-12T16:20:02.695Z,28.90
2018-10-12T16:22:41.801Z,28.83
2018-10-12T16:25:22.463Z,28.73
2018-10-12T16:27:52.465Z,28.60
2018-10-12T16:30:25.026Z,28.57
2018-10-12T16:32:54.085Z,28.49
2018-10-12T16:35:22.910Z,28.43
2018-10-12T16:37:52.741Z,28.37
2018-10-12T16:40:21.524Z,28.30
2018-10-12T16:42:50.147Z,28.22
2018-10-12T16:45:19.166Z,28.19
2018-10-12T16:47:47.749Z,28.10
2018-10-12T16:50:17.116Z,28.03
2018-10-12T16:52:45.932Z,27.97
2018-10-12T16:55:14.701Z,27.91
2018-10-12T16:57:43.611Z,27.85
2018-10-12T17:00:12.431Z,27.80
2018-10-12T17:02:41.488Z,27.72
2018-10-12T17:05:11.762Z,27.68
2018-10-12T17:07:41.450Z,27.65
2018-10-12T17:10:10.288Z,27.60
2018-10-12T17:12:39.178Z,27.52
2018-10-12T17:15:08.701Z,27.45
2018-10-12T17:17:38.283Z,27.43
2018-10-12T17:20:08.096Z,27.39
2018-10-12T17:22:37.553Z,27.36
2018-10-12T17:25:06.839Z,27.29
2018-10-12T17:27:35.992Z,27.27
2018-10-12T17:30:05.231Z,27.25
2018-10-12T17:32:34.277Z,27.19
2018-10-12T17:35:03.000Z,27.14
2018-10-12T17:37:32.842Z,27.10
2018-10-12T17:40:01.599Z,27.03
2018-10-12T17:42:30.347Z,26.99
2018-10-12T17:44:59.182Z,26.95
2018-10-12T17:47:28.246Z,26.88
2018-10-12T17:49:57.206Z,26.84
2018-10-12T17:52:26.076Z,26.80
2018-10-12T17:54:54.742Z,26.70
2018-10-12T17:57:27.980Z,26.68
2018-10-12T17:59:57.101Z,26.62
2018-10-12T18:02:25.794Z,26.54
2018-10-12T18:04:54.508Z,26.53
2018-10-12T18:07:23.375Z,25.77
2018-10-12T18:09:52.091Z,26.44
2018-10-12T18:12:20.997Z,26.38
2018-10-12T18:14:49.780Z,26.37
2018-10-12T18:17:18.559Z,26.32
2018-10-12T18:19:47.417Z,26.28
2018-10-12T18:22:15.973Z,26.25
2018-10-12T18:24:45.217Z,26.23
2018-10-12T18:27:14.092Z,26.21
2018-10-12T18:29:42.712Z,26.18
2018-10-12T18:32:11.328Z,26.11
2018-10-12T18:34:40.131Z,26.11
2018-10-12T18:37:08.746Z,26.09
2018-10-12T18:39:37.546Z,26.07
2018-10-12T18:42:06.144Z,25.99
2018-10-12T18:44:34.744Z,25.92
2018-10-12T18:47:03.363Z,25.94
2018-10-12T18:49:32.024Z,25.90
2018-10-12T18:52:00.628Z,25.85
2018-10-12T18:54:29.399Z,25.82
2018-10-12T18:56:58.044Z,25.81
2018-10-12T18:59:26.809Z,25.80
2018-10-12T19:01:55.502Z,25.79
2018-10-12T19:04:24.275Z,25.78
2018-10-12T19:06:52.893Z,25.76
2018-10-12T19:09:21.729Z,25.75
2018-10-12T19:11:50.504Z,25.74
2018-10-12T19:14:19.581Z,25.74
2018-10-12T19:16:48.219Z,25.73
2018-10-12T19:19:16.892Z,25.67
2018-10-12T19:21:45.561Z,25.65
2018-10-12T19:24:14.312Z,25.65
2018-10-12T19:26:43.084Z,25.60
2018-10-12T19:29:11.754Z,25.57
2018-10-12T19:31:40.404Z,25.57
2018-10-12T19:34:09.013Z,25.53
2018-10-12T19:36:37.602Z,25.48
2018-10-12T19:39:08.323Z,25.47
2018-10-12T19:41:36.895Z,25.45
2018-10-12T19:44:05.553Z,25.42
2018-10-12T19:46:34.281Z,25.42
2018-10-12T19:49:02.924Z,25.37
2018-10-12T19:51:31.702Z,25.35
2018-10-12T19:54:00.434Z,25.34
2018-10-12T19:56:29.325Z,25.31
2018-10-12T19:58:58.319Z,25.28
2018-10-12T20:01:27.232Z,25.24
2018-10-12T20:03:56.017Z,25.23
2018-10-12T20:06:24.760Z,25.24
2018-10-12T20:08:53.483Z,25.20
2018-10-12T20:11:22.232Z,25.14
2018-10-12T20:13:50.857Z,25.10
2018-10-12T20:16:19.560Z,25.09
2018-10-12T20:18:48.519Z,25.05
2018-10-12T20:21:17.192Z,25.01
2018-10-12T20:23:46.212Z,24.82
2018-10-12T20:26:15.172Z,24.97
2018-10-12T20:28:44.333Z,24.94
2018-10-12T20:31:13.053Z,24.94
2018-10-12T20:33:41.743Z,24.93
2018-10-12T20:36:10.501Z,24.92
2018-10-12T20:38:39.414Z,24.91
2018-10-12T20:41:08.069Z,24.88
2018-10-12T20:43:36.804Z,24.89
2018-10-12T20:46:05.787Z,24.87
2018-10-12T20:48:34.552Z,24.86
2018-10-12T20:51:03.201Z,24.86
2018-10-12T20:53:32.038Z,24.84
2018-10-12T20:56:01.729Z,24.82
2018-10-12T20:58:30.878Z,24.79
2018-10-12T21:00:59.959Z,24.77
2018-10-12T21:03:29.114Z,24.77
2018-10-12T21:05:57.972Z,24.75
2018-10-12T21:08:28.518Z,24.71
2018-10-12T21:10:57.404Z,24.74
2018-10-12T21:13:26.227Z,24.75
2018-10-12T21:15:55.148Z,24.75
2018-10-12T21:18:23.815Z,24.69
2018-10-12T21:20:52.479Z,24.71
2018-10-12T21:23:21.141Z,24.69
2018-10-12T21:25:50.013Z,24.68
2018-10-12T21:28:19.545Z,24.76
2018-10-12T21:30:48.256Z,24.79
2018-10-12T21:33:17.893Z,24.81
2018-10-12T21:35:46.618Z,23.87
2018-10-12T21:38:15.234Z,24.85
2018-10-12T21:40:44.063Z,24.88
2018-10-12T21:43:12.798Z,24.96
2018-10-12T21:45:41.496Z,24.96
2018-10-12T21:48:10.212Z,24.96
2018-10-12T21:50:38.910Z,24.97
2018-10-12T21:53:07.485Z,24.96
2018-10-12T21:55:36.821Z,24.97
2018-10-12T21:58:06.050Z,24.98
2018-10-12T22:00:35.333Z,25.05
2018-10-12T22:03:04.720Z,25.05
2018-10-12T22:05:34.032Z,25.05
2018-10-12T22:08:03.063Z,25.09
2018-10-12T22:10:32.010Z,25.07
2018-10-12T22:13:01.163Z,25.06
2018-10-12T22:15:30.269Z,25.06
2018-10-12T22:17:59.447Z,25.09
2018-10-12T22:20:28.499Z,25.13
2018-10-12T22:22:57.399Z,25.07
2018-10-12T22:25:26.953Z,25.09
2018-10-12T22:27:56.498Z,25.13
2018-10-12T22:30:25.389Z,25.14
2018-10-12T22:32:54.414Z,25.16
2018-10-12T22:35:23.439Z,25.14
2018-10-12T22:37:52.779Z,25.17
2018-10-12T22:40:21.738Z,25.16
2018-10-12T22:42:50.853Z,25.14
2018-10-12T22:45:19.761Z,25.14
2018-10-12T22:47:48.826Z,25.12
2018-10-12T22:50:17.703Z,25.15
2018-10-12T22:52:46.581Z,25.11
2018-10-12T22:55:15.597Z,25.14
2018-10-12T22:57:44.555Z,25.15
2018-10-12T23:00:13.569Z,25.13
2018-10-12T23:02:42.612Z,25.13
2018-10-12T23:05:11.637Z,25.12
2018-10-12T23:07:40.502Z,25.14
2018-10-12T23:10:09.489Z,25.15
2018-10-12T23:12:38.366Z,25.10
2018-10-12T23:15:07.279Z,25.08
2018-10-12T23:17:36.278Z,25.07
2018-10-12T23:20:05.279Z,25.08
2018-10-12T23:22:34.257Z,25.07
2018-10-12T23:25:03.456Z,25.07
2018-10-12T23:27:32.414Z,25.05
2018-10-12T23:30:01.421Z,25.04
2018-10-12T23:32:30.522Z,25.06
2018-10-12T23:34:59.480Z,25.05
2018-10-12T23:37:28.628Z,25.01
2018-10-12T23:39:57.578Z,24.98
2018-10-12T23:42:26.408Z,24.99
2018-10-12T23:44:55.240Z,24.94
2018-10-12T23:47:24.048Z,24.95
2018-10-12T23:49:52.751Z,24.91
2018-10-12T23:52:21.445Z,24.89
2018-10-12T23:54:50.290Z,24.84
2018-10-12T23:57:19.020Z,24.78
2018-10-12T23:59:47.673Z,24.73
